Time;durP1;ratioP1;P1;durP2;ratioP2;P2;SDS_P1;SDS_P2;PMS_P1;PMS_P2;Temp;Humidity;BMP_temperature;BMP_pressure;BME280_temperature;BME280_humidity;BME280_pressure;Samples;Min_cycle;Max_cycle;Signal;HPM_P1;HPM_P2
2023/06/12 00:01:36;;;;;;;7.13;4.43;;;;;;;19.14;41.57;101410.63;5030869;28;20044;-77
2023/06/12 00:04:02;;;;;;;5.10;4.60;;;;;;;19.11;41.81;101408.38;5030569;28;20044;-77
2023/06/12 00:06:28;;;;;;;6.57;4.97;;;;;;;18.99;41.82;101405.66;5028745;28;20033;-77
2023/06/12 00:08:53;;;;;;;4.80;4.22;;;;;;;18.93;42.03;101407.41;5016978;28;20029;-77
2023/06/12 00:11:19;;;;;;;6.05;4.40;;;;;;;18.91;42.12;101408.75;5022757;28;20033;-77
2023/06/12 00:13:46;;;;;;;9.18;4.82;;;;;;;18.83;42.31;101407.22;5037043;28;20059;-77
2023/06/12 00:16:11;;;;;;;5.32;4.80;;;;;;;18.77;42.63;101408.16;5039656;28;20064;-77
2023/06/12 00:18:38;;;;;;;5.05;4.40;;;;;;;18.67;42.71;101407.94;5027559;28;20038;-77
2023/06/12 00:21:05;;;;;;;4.68;4.22;;;;;;;18.58;43.20;101402.81;5025223;28;20115;-76
2023/06/12 00:23:30;;;;;;;4.75;4.28;;;;;;;18.49;43.22;101404.25;5016214;28;20056;-77
2023/06/12 00:25:56;;;;;;;4.65;4.20;;;;;;;18.38;43.58;101410.50;5020958;28;20461;-77
2023/06/12 00:28:21;;;;;;;4.85;4.25;;;;;;;18.27;43.76;101404.84;5011655;28;20052;-77
2023/06/12 00:30:47;;;;;;;7.82;3.88;;;;;;;18.20;43.75;101409.53;5009175;28;20030;-77
2023/06/12 00:33:12;;;;;;;5.68;4.40;;;;;;;18.08;44.50;101406.81;5016196;28;20232;-77
2023/06/12 00:35:37;;;;;;;7.22;3.97;;;;;;;17.98;44.63;101404.66;5017796;28;20026;-77
2023/06/12 00:38:03;;;;;;;7.35;4.60;;;;;;;17.92;45.13;101402.00;5012721;28;20032;-77
2023/06/12 00:40:28;;;;;;;4.97;4.20;;;;;;;17.83;45.51;101405.06;5016119;28;20466;-77
2023/06/12 00:42:54;;;;;;;4.97;3.78;;;;;;;17.78;45.48;101398.66;5016299;28;20040;-77
2023/06/12 00:45:21;;;;;;;4.38;4.00;;;;;;;17.73;45.49;101399.34;5012582;28;20026;-77
2023/06/12 00:47:48;;;;;;;5.55;4.40;;;;;;;17.67;45.64;101395.66;5017735;28;20026;-77
2023/06/12 00:50:13;;;;;;;5.28;3.90;;;;;;;17.62;45.71;101398.25;5008809;28;20029;-77
2023/06/12 00:52:45;;;;;;;5.28;4.60;;;;;;;17.56;46.12;101393.72;5010929;28;20026;-77
2023/06/12 00:55:11;;;;;;;5.13;4.00;;;;;;;17.52;46.06;101397.94;5002317;28;20484;-76
2023/06/12 00:57:38;;;;;;;5.85;4.13;;;;;;;17.48;46.07;101394.88;5011360;28;20026;-76
2023/06/12 01:00:06;;;;;;;5.53;4.13;;;;;;;17.46;46.18;101398.88;5011848;28;20488;-76
2023/06/12 01:02:32;;;;;;;5.25;4.43;;;;;;;17.40;46.49;101400.63;5010341;28;20490;-77
2023/06/12 01:04:59;;;;;;;4.70;4.30;;;;;;;17.33;46.58;101394.44;5004136;28;20473;-77
2023/06/12 01:07:29;;;;;;;4.78;4.18;;;;;;;17.32;46.86;101387.34;5011242;28;20072;-77
2023/06/12 01:10:15;;;;;;;4.72;4.30;;;;;;;17.24;47.28;101391.22;4985876;28;20025;-77
2023/06/12 01:12:40;;;;;;;5.60;4.77;;;;;;;17.22;47.07;101390.59;5004287;28;20468;-77
2023/06/12 01:15:06;;;;;;;5.60;4.25;;;;;;;17.15;47.43;101392.56;5002979;28;20296;-76
2023/06/12 01:17:31;;;;;;;4.30;3.83;;;;;;;17.10;47.53;101388.66;5011329;28;20468;-76
2023/06/12 01:19:57;;;;;;;5.25;4.53;;;;;;;17.04;47.86;101392.28;5017621;28;20605;-77
2023/06/12 01:22:23;;;;;;;5.20;4.70;;;;;;;16.99;47.82;101389.41;5014579;28;20033;-77
2023/06/12 01:25:07;;;;;;;7.15;4.57;;;;;;;16.90;48.07;101388.84;5018780;28;20599;-77
2023/06/12 01:27:57;;;;;;;5.47;4.80;;;;;;;16.86;48.27;101390.34;5029486;28;20116;-76
2023/06/12 01:30:40;;;;;;;5.25;4.25;;;;;;;16.83;48.15;101386.19;5013104;28;20109;-76
2023/06/12 01:33:09;;;;;;;5.28;4.50;;;;;;;16.76;48.24;101388.16;5038288;28;20037;-76
2023/06/12 01:38:20;;;;;;;5.47;4.73;;;;;;;16.62;48.96;101401.06;5336341;23;20045;-76
2023/06/12 01:40:49;;;;;;;5.22;4.72;;;;;;;16.56;48.69;101395.69;5044789;28;20057;-76
2023/06/12 01:43:14;;;;;;;6.90;4.70;;;;;;;16.49;49.19;101398.47;5014267;28;20127;-76
2023/06/12 01:45:40;;;;;;;6.47;4.85;;;;;;;16.42;49.17;101395.78;5051073;28;20032;-77
2023/06/12 01:48:05;;;;;;;7.40;5.15;;;;;;;16.41;48.99;101396.03;5048860;28;20358;-76
2023/06/12 01:50:31;;;;;;;8.32;5.70;;;;;;;16.41;49.21;101396.88;5048822;28;20025;-76
2023/06/12 01:52:56;;;;;;;5.90;5.30;;;;;;;16.43;49.12;101386.56;5051244;28;20442;-76
2023/06/12 01:55:22;;;;;;;7.18;5.50;;;;;;;16.40;49.54;101391.63;5048344;28;21476;-76
2023/06/12 01:57:50;;;;;;;5.60;4.97;;;;;;;16.35;49.16;101401.28;5048731;28;20036;-76
2023/06/12 02:00:17;;;;;;;5.95;4.57;;;;;;;16.29;49.36;101398.63;5050100;28;20032;-76
2023/06/12 02:02:43;;;;;;;5.60;5.00;;;;;;;16.20;49.65;101404.34;5049066;28;20427;-76
2023/06/12 02:05:09;;;;;;;4.97;4.47;;;;;;;16.16;49.67;101403.13;5040837;28;20028;-76
2023/06/12 02:07:35;;;;;;;5.60;4.93;;;;;;;16.09;49.95;101402.31;5050062;28;20032;-76
2023/06/12 02:10:00;;;;;;;7.55;4.63;;;;;;;16.03;50.40;101393.19;5042859;28;20047;-76
2023/06/12 02:12:25;;;;;;;7.00;4.95;;;;;;;15.98;50.54;101400.34;5052405;28;20526;-76
2023/06/12 02:14:51;;;;;;;6.80;5.32;;;;;;;15.97;50.70;101398.66;5050324;28;20033;-76
2023/06/12 02:17:18;;;;;;;8.40;5.82;;;;;;;15.91;51.43;101401.19;5048944;28;20094;-77
2023/06/12 02:19:45;;;;;;;9.98;5.55;;;;;;;15.87;51.43;101405.44;5050678;28;20017;-79
2023/06/12 02:22:10;;;;;;;5.07;4.57;;;;;;;15.84;51.07;101405.81;5049753;28;20035;-78
2023/06/12 02:24:37;;;;;;;8.10;5.63;;;;;;;15.80;51.48;101403.75;5044781;28;20412;-78
2023/06/12 02:27:02;;;;;;;5.32;4.82;;;;;;;15.79;51.47;101405.63;5043108;28;20384;-80
2023/06/12 02:29:28;;;;;;;6.03;4.90;;;;;;;15.78;51.52;101412.13;5044210;28;20029;-78
2023/06/12 02:31:53;;;;;;;5.13;4.63;;;;;;;15.72;51.65;101408.41;5037087;28;20028;-78
2023/06/12 02:34:19;;;;;;;6.78;4.45;;;;;;;15.65;52.12;101406.78;5049657;28;20464;-78
2023/06/12 02:36:46;;;;;;;7.47;4.72;;;;;;;15.59;51.93;101403.06;5044560;28;20033;-77
2023/06/12 02:39:15;;;;;;;6.82;5.50;;;;;;;15.59;52.33;101403.06;5050123;28;20029;-79
2023/06/12 02:41:41;;;;;;;7.68;5.40;;;;;;;15.55;52.62;101408.06;5038763;28;20087;-78
2023/06/12 02:44:06;;;;;;;7.30;5.53;;;;;;;15.55;52.52;101402.63;5046132;28;20029;-77
2023/06/12 02:46:31;;;;;;;5.80;5.20;;;;;;;15.53;52.93;101407.44;5048615;28;20384;-77
2023/06/12 02:48:57;;;;;;;6.53;5.10;;;;;;;15.52;53.40;101408.50;5045722;28;20400;-77
2023/06/12 02:51:22;;;;;;;6.00;5.43;;;;;;;15.52;53.20;101411.22;5046890;28;20033;-78
2023/06/12 02:53:47;;;;;;;6.95;5.45;;;;;;;15.54;53.09;101406.38;5049780;28;20021;-77
2023/06/12 02:56:13;;;;;;;9.35;5.80;;;;;;;15.56;52.81;101398.88;5048960;28;20031;-76
2023/06/12 02:58:40;;;;;;;7.85;5.47;;;;;;;15.56;53.17;101401.59;5044911;28;20021;-76
2023/06/12 03:01:06;;;;;;;6.82;5.63;;;;;;;15.59;52.95;101403.88;5044957;28;20083;-77
2023/06/12 03:03:32;;;;;;;8.43;5.72;;;;;;;15.60;52.84;101405.53;5050741;28;20037;-77
2023/06/12 03:05:57;;;;;;;6.57;5.93;;;;;;;15.66;52.84;101401.13;5032028;28;20037;-77
2023/06/12 03:08:22;;;;;;;7.35;5.40;;;;;;;15.65;52.75;101398.63;5040511;28;20029;-78
2023/06/12 03:10:48;;;;;;;7.13;5.80;;;;;;;15.63;53.16;101403.44;5049836;28;20492;-77
2023/06/12 03:13:14;;;;;;;8.50;6.22;;;;;;;15.61;52.80;101395.53;5044843;28;20034;-75
2023/06/12 03:15:39;;;;;;;7.07;5.82;;;;;;;15.61;52.94;101407.19;5049153;28;20457;-75
2023/06/12 03:18:04;;;;;;;7.75;6.20;;;;;;;15.61;53.20;101401.78;5053213;28;20021;-75
2023/06/12 03:20:33;;;;;;;7.40;6.30;;;;;;;15.67;52.99;101405.50;5046837;28;20182;-77
2023/06/12 03:22:59;;;;;;;6.90;6.20;;;;;;;15.68;52.92;101406.34;5047293;28;20064;-76
2023/06/12 03:25:24;;;;;;;7.65;6.00;;;;;;;15.70;52.83;101409.69;5049855;28;20096;-76
2023/06/12 03:27:50;;;;;;;8.48;6.65;;;;;;;15.71;53.01;101405.88;5040912;28;20468;-75
2023/06/12 03:30:15;;;;;;;7.88;6.30;;;;;;;15.65;53.09;101406.78;5043159;28;20043;-75
2023/06/12 03:32:41;;;;;;;10.75;6.55;;;;;;;15.63;53.24;101411.59;5052294;28;20024;-75
2023/06/12 03:35:06;;;;;;;11.52;6.85;;;;;;;15.59;53.08;101409.28;5051659;28;20246;-75
2023/06/12 03:37:32;;;;;;;7.45;6.20;;;;;;;15.61;53.09;101409.91;5048508;28;20370;-75
2023/06/12 03:39:57;;;;;;;7.60;6.80;;;;;;;15.71;52.85;101409.44;5050706;28;20546;-75
2023/06/12 03:42:23;;;;;;;8.85;6.40;;;;;;;15.73;52.92;101411.94;5052509;28;20385;-75
2023/06/12 03:44:48;;;;;;;7.55;6.75;;;;;;;15.72;52.98;101412.97;5030534;28;20040;-75
2023/06/12 03:47:14;;;;;;;8.25;7.10;;;;;;;15.73;53.13;101409.22;5051718;28;20093;-75
2023/06/12 03:49:39;;;;;;;7.90;7.07;;;;;;;15.79;53.24;101408.34;5050895;28;20032;-75
2023/06/12 03:52:05;;;;;;;9.30;6.45;;;;;;;15.80;53.06;101412.75;5049770;28;20051;-75
2023/06/12 03:54:32;;;;;;;9.20;7.57;;;;;;;15.82;53.01;101410.63;5033470;28;20024;-76
2023/06/12 03:56:57;;;;;;;8.68;7.18;;;;;;;15.87;52.84;101405.44;5048860;28;20118;-75
2023/06/12 03:59:23;;;;;;;10.55;7.68;;;;;;;15.97;52.23;101417.66;5051761;28;20050;-75
2023/06/12 04:01:49;;;;;;;7.78;6.70;;;;;;;16.05;52.25;101409.28;5051384;28;20033;-75
2023/06/12 04:04:14;;;;;;;8.68;7.50;;;;;;;16.13;51.88;101419.84;5047992;28;20358;-76
2023/06/12 04:06:40;;;;;;;11.15;7.22;;;;;;;16.17;51.73;101410.22;5051326;28;20075;-75
2023/06/12 04:09:09;;;;;;;8.30;7.50;;;;;;;16.22;51.68;101414.97;5052362;28;20029;-76
2023/06/12 04:11:35;;;;;;;10.75;7.40;;;;;;;16.28;51.46;101411.41;5048651;28;20035;-75
2023/06/12 04:14:03;;;;;;;7.28;6.57;;;;;;;16.36;51.05;101419.25;5052183;28;20033;-75
2023/06/12 04:16:28;;;;;;;9.70;7.05;;;;;;;16.42;51.06;101422.97;5046925;28;20033;-75
2023/06/12 04:18:54;;;;;;;10.07;7.00;;;;;;;16.47;51.39;101412.25;5049942;28;20032;-76
2023/06/12 04:21:21;;;;;;;8.00;7.13;;;;;;;16.55;50.67;101415.75;5047090;28;20144;-76
2023/06/12 04:23:47;;;;;;;8.55;7.03;;;;;;;16.59;50.92;101411.56;5051293;28;20120;-76
2023/06/12 04:26:14;;;;;;;8.75;6.95;;;;;;;16.67;50.60;101411.25;5048930;28;20078;-76
2023/06/12 04:28:41;;;;;;;8.75;7.00;;;;;;;16.79;50.02;101416.78;5042675;28;20032;-75
2023/06/12 04:31:06;;;;;;;8.10;6.43;;;;;;;16.97;49.86;101410.53;5051351;28;20089;-76
2023/06/12 04:33:35;;;;;;;8.00;6.05;;;;;;;17.30;48.95;101409.31;5051505;28;20544;-76
2023/06/12 04:36:01;;;;;;;6.97;5.90;;;;;;;18.04;47.29;101413.81;5040286;28;20041;-76
2023/06/12 04:38:36;;;;;;;7.28;6.50;;;;;;;19.07;45.44;101412.63;5045741;28;20068;-76
2023/06/12 04:41:02;;;;;;;7.47;6.15;;;;;;;20.04;43.04;101414.78;5051021;28;20491;-76
2023/06/12 04:43:32;;;;;;;10.10;6.88;;;;;;;20.88;40.85;101415.84;5051136;28;20037;-76
2023/06/12 04:45:57;;;;;;;8.18;7.10;;;;;;;21.32;39.86;101412.28;5044030;28;20117;-76
2023/06/12 04:48:23;;;;;;;8.13;6.85;;;;;;;21.64;38.51;101417.03;5040691;28;20016;-76
2023/06/12 04:50:50;;;;;;;7.80;6.40;;;;;;;21.93;38.61;101412.13;5044365;28;20427;-76
2023/06/12 04:53:19;;;;;;;7.72;6.60;;;;;;;22.23;37.63;101416.25;5051749;28;20436;-76
2023/06/12 04:55:50;;;;;;;9.10;6.80;;;;;;;22.65;36.51;101416.53;5045827;28;20112;-76
2023/06/12 04:58:17;;;;;;;7.30;6.60;;;;;;;22.89;35.67;101416.16;5045975;28;20028;-76
2023/06/12 05:00:44;;;;;;;8.80;6.65;;;;;;;23.33;34.93;101410.31;5041026;28;20035;-75
2023/06/12 05:03:10;;;;;;;10.52;6.63;;;;;;;23.60;34.93;101420.28;5051438;28;20028;-75
2023/06/12 05:05:36;;;;;;;7.75;6.30;;;;;;;23.79;34.71;101422.53;5049300;28;20370;-75
2023/06/12 05:08:02;;;;;;;7.15;6.43;;;;;;;24.14;34.06;101427.25;5044263;28;20404;-75
2023/06/12 05:10:27;;;;;;;6.75;5.80;;;;;;;24.42;33.48;101424.22;5043727;28;20071;-75
2023/06/12 05:12:53;;;;;;;9.75;6.30;;;;;;;24.16;33.23;101421.47;5048699;28;20047;-75
2023/06/12 05:15:18;;;;;;;9.43;5.85;;;;;;;24.51;33.10;101422.56;5051025;28;20479;-75
2023/06/12 05:17:44;;;;;;;6.63;5.93;;;;;;;25.09;32.16;101432.31;5050391;28;20024;-75
2023/06/12 05:20:09;;;;;;;6.55;5.90;;;;;;;25.36;31.61;101428.38;5045434;28;20502;-75
2023/06/12 05:22:36;;;;;;;6.75;6.05;;;;;;;25.24;32.09;101423.19;5044373;28;20465;-75
2023/06/12 05:25:03;;;;;;;7.10;6.45;;;;;;;25.63;31.39;101427.13;5046305;28;20063;-75
2023/06/12 05:27:28;;;;;;;9.32;6.88;;;;;;;25.12;32.08;101435.38;5055238;28;20031;-75
2023/06/12 05:29:53;;;;;;;7.20;6.50;;;;;;;25.33;31.77;101431.69;5050292;28;20024;-76
2023/06/12 05:32:19;;;;;;;7.43;6.45;;;;;;;26.03;30.92;101427.97;5044545;28;20413;-77
2023/06/12 05:34:44;;;;;;;7.45;6.65;;;;;;;26.61;30.52;101429.13;5048427;28;20029;-77
2023/06/12 05:37:10;;;;;;;8.13;6.45;;;;;;;26.32;30.34;101424.44;5048299;28;20480;-78
2023/06/12 05:39:35;;;;;;;7.05;6.32;;;;;;;26.58;29.97;101427.75;5039247;28;20029;-76
2023/06/12 05:42:07;;;;;;;7.47;6.10;;;;;;;25.67;31.51;101431.81;5050305;28;20024;-76
2023/06/12 05:44:35;;;;;;;11.73;6.90;;;;;;;25.94;31.42;101430.50;5047246;28;20028;-76
2023/06/12 05:47:00;;;;;;;8.85;6.00;;;;;;;26.35;30.66;101434.91;5047255;28;20492;-78
2023/06/12 05:49:26;;;;;;;9.07;6.53;;;;;;;25.81;31.13;101425.66;5035621;28;20036;-75
2023/06/12 05:51:51;;;;;;;7.43;6.47;;;;;;;26.55;30.24;101428.38;5042673;28;20029;-79
2023/06/12 05:54:16;;;;;;;7.07;5.82;;;;;;;26.48;30.62;101425.91;5044644;28;20024;-81
2023/06/12 05:56:42;;;;;;;6.82;5.70;;;;;;;27.19;29.66;101436.50;5040812;28;20514;-76
2023/06/12 05:59:08;;;;;;;9.55;5.88;;;;;;;27.28;29.02;101433.91;5041692;28;20036;-79
2023/06/12 06:01:34;;;;;;;7.75;5.93;;;;;;;27.95;28.26;101434.91;5043216;28;20088;-77
2023/06/12 06:04:02;;;;;;;7.25;5.75;;;;;;;27.14;29.47;101438.50;5038675;28;20083;-79
2023/06/12 06:06:30;;;;;;;7.65;6.07;;;;;;;26.11;30.96;101432.03;5044655;28;20020;-78
2023/06/12 06:08:56;;;;;;;7.32;5.95;;;;;;;27.03;29.96;101427.56;5045582;28;20029;-78
2023/06/12 06:11:22;;;;;;;7.05;5.78;;;;;;;27.73;28.92;101427.22;5040798;28;20028;-78
2023/06/12 06:13:47;;;;;;;7.88;5.70;;;;;;;27.87;28.65;101441.97;5037851;28;20492;-78
2023/06/12 06:16:18;;;;;;;6.45;5.85;;;;;;;27.81;29.17;101438.44;5046759;28;20066;-79
2023/06/12 06:18:44;;;;;;;8.50;6.10;;;;;;;27.31;29.48;101438.00;5048993;28;20035;-79
2023/06/12 06:21:11;;;;;;;6.05;5.45;;;;;;;27.09;30.15;101445.75;5047948;28;20465;-78
2023/06/12 06:23:36;;;;;;;9.55;5.40;;;;;;;27.26;29.58;101441.66;5042162;28;20100;-79
2023/06/12 06:26:02;;;;;;;8.35;5.68;;;;;;;27.03;30.71;101449.69;5041122;28;20029;-79
2023/06/12 06:28:28;;;;;;;7.82;6.00;;;;;;;26.62;31.03;101444.59;5039203;28;20400;-78
2023/06/12 06:30:53;;;;;;;8.30;6.13;;;;;;;26.29;31.26;101444.34;5044387;28;20700;-79
2023/06/12 06:33:18;;;;;;;7.78;6.22;;;;;;;26.72;30.85;101446.41;5036614;28;20110;-79
2023/06/12 06:35:44;;;;;;;6.03;5.43;;;;;;;27.75;29.46;101453.47;5041031;28;20029;-78
2023/06/12 06:38:09;;;;;;;6.63;6.03;;;;;;;28.57;28.57;101456.88;5047089;28;20044;-80
2023/06/12 06:40:37;;;;;;;9.05;5.97;;;;;;;29.49;27.76;101447.84;5047268;28;20036;-81
2023/06/12 06:43:03;;;;;;;7.78;5.43;;;;;;;29.60;26.26;101458.72;5047228;28;20056;-79
2023/06/12 06:45:28;;;;;;;6.57;5.13;;;;;;;30.48;25.75;101460.19;5045817;28;20033;-79
2023/06/12 06:47:53;;;;;;;8.85;5.65;;;;;;;30.94;24.86;101458.16;5041970;28;20139;-79
2023/06/12 06:50:19;;;;;;;9.57;5.70;;;;;;;30.04;26.47;101462.69;5041172;28;20102;-79
2023/06/12 06:52:44;;;;;;;8.60;5.80;;;;;;;31.11;24.87;101462.94;5051346;28;20028;-78
2023/06/12 06:55:10;;;;;;;7.72;5.45;;;;;;;30.82;24.76;101457.94;5050037;28;20058;-78
2023/06/12 06:57:37;;;;;;;6.07;5.45;;;;;;;29.86;26.69;101467.28;5043644;28;20475;-78
2023/06/12 07:00:06;;;;;;;5.68;4.82;;;;;;;30.81;24.79;101457.09;5052233;28;20044;-78
2023/06/12 07:02:32;;;;;;;6.22;5.32;;;;;;;30.48;25.20;101454.63;5046512;28;20055;-78
2023/06/12 07:04:57;;;;;;;38.28;5.78;;;;;;;31.25;25.20;101453.69;5041685;28;20037;-79
2023/06/12 07:07:23;;;;;;;8.02;4.82;;;;;;;32.58;23.63;101450.50;5044886;28;20024;-79
2023/06/12 07:09:48;;;;;;;10.25;5.68;;;;;;;33.20;22.56;101455.81;5046551;28;20109;-79
2023/06/12 07:12:13;;;;;;;7.32;5.15;;;;;;;31.95;23.95;101458.53;5043500;28;20366;-79
2023/06/12 07:14:39;;;;;;;7.25;5.40;;;;;;;31.75;24.07;101446.91;5052400;28;20025;-78
2023/06/12 07:17:04;;;;;;;5.55;4.97;;;;;;;32.72;23.37;101453.09;5032784;28;20086;-78
2023/06/12 07:19:30;;;;;;;7.97;5.03;;;;;;;32.69;22.47;101448.19;5050806;28;20048;-78
2023/06/12 07:21:56;;;;;;;5.70;4.65;;;;;;;32.87;23.32;101443.38;5045600;28;20058;-79
2023/06/12 07:24:21;;;;;;;7.72;5.45;;;;;;;32.42;22.64;101432.69;5050010;28;20570;-79
2023/06/12 07:26:46;;;;;;;8.07;5.35;;;;;;;32.57;22.89;101445.28;5047481;28;20036;-79
2023/06/12 07:29:12;;;;;;;5.38;4.88;;;;;;;32.93;22.35;101441.22;5046474;28;20420;-79
2023/06/12 07:31:37;;;;;;;5.07;4.47;;;;;;;34.17;21.03;101444.72;5040976;28;20029;-79
2023/06/12 07:34:03;;;;;;;6.65;5.15;;;;;;;33.14;21.92;101440.44;5028648;28;20451;-80
2023/06/12 07:36:35;;;;;;;5.25;4.75;;;;;;;33.44;21.65;101446.84;5049090;28;20041;-79
2023/06/12 07:39:00;;;;;;;7.13;5.13;;;;;;;32.99;22.39;101450.22;5050737;28;20484;-79
2023/06/12 07:41:29;;;;;;;6.88;4.60;;;;;;;32.54;22.99;101440.38;5049998;28;20060;-79
2023/06/12 07:43:54;;;;;;;5.53;5.00;;;;;;;33.15;22.41;101442.88;5047606;28;20033;-79
2023/06/12 07:46:40;;;;;;;7.45;4.90;;;;;;;32.89;22.53;101434.66;5485483;23;20053;-79
2023/06/12 07:52:29;;;;;;;5.65;5.05;;;;;;;32.61;22.67;101435.09;5282298;23;20057;-80
2023/06/12 07:54:54;;;;;;;5.30;4.80;;;;;;;32.85;22.79;101434.53;5035289;28;20252;-79
2023/06/12 07:57:34;;;;;;;7.13;5.07;;;;;;;32.44;23.22;101430.41;5037665;28;20271;-79
2023/06/12 08:03:43;;;;;;;6.93;5.15;;;;;;;34.36;21.61;101435.00;5047451;28;20095;-80
2023/06/12 08:06:09;;;;;;;6.85;5.15;;;;;;;34.79;20.68;101416.06;5043087;28;20037;-79
2023/06/12 08:08:45;;;;;;;5.80;4.82;;;;;;;34.71;21.06;101420.63;5048477;28;20013;-80
2023/06/12 08:11:17;;;;;;;5.55;4.85;;;;;;;34.73;20.22;101423.88;5035980;28;20071;-81
2023/06/12 08:13:42;;;;;;;7.85;5.15;;;;;;;34.98;20.37;101424.72;5030756;28;20029;-80
2023/06/12 08:16:23;;;;;;;5.97;4.80;;;;;;;34.96;20.32;101420.63;5027008;28;20049;-81
2023/06/12 08:19:04;;;;;;;6.82;4.80;;;;;;;35.79;19.77;101420.31;5046553;28;20426;-81
2023/06/12 08:21:32;;;;;;;6.43;5.15;;;;;;;36.14;18.88;101404.88;5101260;23;20057;-81
2023/06/12 08:24:09;;;;;;;5.72;4.70;;;;;;;35.94;18.31;101421.53;5049845;28;20391;-80
2023/06/12 08:26:36;;;;;;;5.93;4.97;;;;;;;35.66;18.67;101411.13;5041530;28;20032;-81
2023/06/12 08:29:02;;;;;;;7.82;4.90;;;;;;;35.57;19.05;101410.47;5050438;28;20025;-80
2023/06/12 08:31:33;;;;;;;5.70;5.03;;;;;;;34.98;19.82;101407.09;5041872;28;20079;-79
2023/06/12 08:33:58;;;;;;;5.30;4.75;;;;;;;36.13;18.84;101411.63;5042307;28;20194;-79
2023/06/12 08:39:34;;;;;;;6.03;5.18;;;;;;;34.41;19.66;101412.41;5104386;23;20048;-80
2023/06/12 08:42:21;;;;;;;5.93;4.53;;;;;;;34.85;19.13;101412.69;5046753;28;20052;-81
2023/06/12 08:48:07;;;;;;;6.20;5.22;;;;;;;34.52;19.63;101402.44;5036267;28;20095;-81
2023/06/12 08:50:33;;;;;;;6.28;4.57;;;;;;;35.16;18.86;101402.88;5023823;28;20037;-81
2023/06/12 08:52:59;;;;;;;5.35;4.55;;;;;;;34.83;19.20;101400.22;5051457;28;20036;-80
2023/06/12 08:55:24;;;;;;;6.10;4.95;;;;;;;34.82;19.36;101404.97;5005822;28;20057;-81
2023/06/12 08:57:51;;;;;;;6.30;4.68;;;;;;;35.20;19.13;101394.59;5046844;28;20029;-81
2023/06/12 09:00:21;;;;;;;5.13;4.63;;;;;;;34.91;19.55;101391.69;5049681;28;20029;-80
2023/06/12 09:02:54;;;;;;;5.28;4.43;;;;;;;36.11;18.76;101389.56;5024899;28;20542;-80
2023/06/12 09:05:21;;;;;;;4.93;4.53;;;;;;;36.45;18.39;101386.44;5050896;28;20108;-80
2023/06/12 09:07:46;;;;;;;5.22;4.60;;;;;;;36.63;17.88;101379.28;5042632;28;20032;-80
2023/06/12 09:10:13;;;;;;;5.75;4.90;;;;;;;36.92;17.75;101379.94;5047710;28;20391;-80
2023/06/12 09:12:43;;;;;;;6.75;4.65;;;;;;;37.50;17.86;101386.84;5049499;28;20025;-81
2023/06/12 09:15:08;;;;;;;5.07;4.40;;;;;;;37.49;17.21;101388.00;5049315;28;20029;-80
2023/06/12 09:17:37;;;;;;;5.10;4.50;;;;;;;36.39;17.74;101381.06;5048360;28;20534;-80
2023/06/12 09:20:07;;;;;;;6.03;4.70;;;;;;;35.87;18.37;101379.28;5047137;28;20033;-80
2023/06/12 09:22:33;;;;;;;4.93;4.43;;;;;;;36.54;17.54;101387.88;5038715;28;20444;-79
2023/06/12 09:24:58;;;;;;;5.30;4.32;;;;;;;37.04;16.82;101381.84;5047887;28;20036;-81
2023/06/12 09:27:23;;;;;;;4.70;4.30;;;;;;;36.94;17.31;101390.84;5014695;28;20510;-81
2023/06/12 09:29:49;;;;;;;5.35;4.50;;;;;;;36.60;17.77;101382.00;5042552;28;20038;-80
2023/06/12 09:32:14;;;;;;;4.72;4.20;;;;;;;36.77;17.57;101386.41;5044131;28;20025;-80
2023/06/12 09:34:51;;;;;;;4.80;4.15;;;;;;;36.44;18.04;101380.00;5050880;28;20103;-80
2023/06/12 09:37:17;;;;;;;4.97;4.57;;;;;;;36.66;17.92;101386.97;5041953;28;20038;-80
2023/06/12 09:39:44;;;;;;;5.40;4.90;;;;;;;35.38;18.95;101383.13;5045710;28;20456;-80
2023/06/12 09:47:32;;;;;;;5.00;4.53;;;;;;;34.49;19.93;101360.38;5219031;23;20390;-81
2023/06/12 09:52:34;;;;;;;5.95;4.80;;;;;;;35.75;19.46;101378.19;5066930;23;20053;-80
2023/06/12 09:55:18;;;;;;;5.68;5.00;;;;;;;35.19;19.95;101367.78;5049591;28;20037;-80
2023/06/12 09:58:15;;;;;;;6.65;4.70;;;;;;;35.22;19.83;101384.66;5030909;28;20021;-81
2023/06/12 10:00:41;;;;;;;6.28;4.82;;;;;;;35.29;19.87;101372.88;5034205;28;20035;-81
2023/06/12 10:03:09;;;;;;;9.05;4.80;;;;;;;35.66;19.79;101380.31;5019951;28;20022;-80
2023/06/12 10:05:37;;;;;;;6.57;5.03;;;;;;;35.14;20.22;101362.41;5048487;28;20086;-82
2023/06/12 10:08:06;;;;;;;5.93;4.88;;;;;;;35.30;20.31;101377.31;5045225;28;20380;-80
2023/06/12 10:10:31;;;;;;;5.55;5.03;;;;;;;34.36;20.96;101388.28;5040133;28;20028;-80
2023/06/12 10:12:57;;;;;;;8.38;5.07;;;;;;;34.57;21.12;101371.44;5018092;23;20049;-80
2023/06/12 10:15:22;;;;;;;5.72;4.88;;;;;;;35.16;20.64;101363.69;5005226;28;20026;-80
2023/06/12 10:18:03;;;;;;;7.20;5.10;;;;;;;35.40;20.55;101356.38;4997640;28;20036;-79
2023/06/12 10:20:29;;;;;;;5.05;4.65;;;;;;;35.36;20.21;101375.06;5028784;28;20087;-80
2023/06/12 10:22:55;;;;;;;5.18;4.60;;;;;;;35.12;20.18;101365.59;4995094;28;20460;-80
2023/06/12 10:25:20;;;;;;;5.07;4.55;;;;;;;34.78;20.29;101364.88;5004095;28;20030;-81
2023/06/12 10:27:46;;;;;;;5.95;4.82;;;;;;;34.73;20.72;101360.34;5028756;28;20095;-80
2023/06/12 10:30:16;;;;;;;5.75;4.65;;;;;;;35.98;19.63;101363.63;4992486;28;20032;-80
2023/06/12 10:32:42;;;;;;;5.25;4.75;;;;;;;35.59;19.59;101375.34;5024315;28;20056;-80
2023/06/12 10:38:02;;;;;;;4.90;4.25;;;;;;;35.77;19.11;101352.63;5026406;28;20480;-80
2023/06/12 10:40:28;;;;;;;4.75;4.20;;;;;;;36.55;18.48;101352.22;5016654;28;20343;-80
2023/06/12 10:43:02;;;;;;;5.28;4.20;;;;;;;36.28;18.12;101360.38;5023769;28;20031;-80
2023/06/12 10:45:28;;;;;;;5.93;4.47;;;;;;;36.96;17.79;101355.59;5013246;28;20022;-80
2023/06/12 10:48:03;;;;;;;7.05;4.57;;;;;;;36.16;18.71;101363.28;5023115;28;20103;-80
2023/06/12 10:50:28;;;;;;;;;;;;;;;35.95;19.33;101353.13;5028767;28;20037;-79
2023/06/12 10:53:13;;;;;;;6.18;4.65;;;;;;;35.88;19.09;101358.50;5021594;28;19917;-79
2023/06/12 10:55:38;;;;;;;6.05;4.40;;;;;;;35.58;19.03;101361.72;4978067;28;20029;-79
2023/06/12 10:58:14;;;;;;;4.70;4.30;;;;;;;35.51;19.07;101368.72;5021521;28;20384;-78
2023/06/12 11:00:45;;;;;;;5.40;4.30;;;;;;;36.18;18.88;101352.53;5026196;28;20029;-78
2023/06/12 11:03:12;;;;;;;6.57;4.35;;;;;;;36.45;18.53;101342.38;5016742;28;20022;-77
2023/06/12 11:05:39;;;;;;;6.05;4.43;;;;;;;36.64;17.92;101344.44;5026360;28;20049;-78
2023/06/12 11:08:08;;;;;;;4.82;4.43;;;;;;;34.39;19.62;101340.06;5024425;28;20033;-78
2023/06/12 11:10:34;;;;;;;4.70;4.30;;;;;;;35.19;19.52;101351.78;5021251;28;20124;-78
2023/06/12 11:13:00;;;;;;;4.38;4.03;;;;;;;34.90;19.38;101338.88;5026937;28;20076;-78
2023/06/12 11:15:25;;;;;;;6.22;4.28;;;;;;;35.21;19.48;101338.25;5024407;28;20160;-79
2023/06/12 11:17:51;;;;;;;4.47;4.18;;;;;;;34.98;19.83;101339.94;5026581;28;20116;-79
2023/06/12 11:20:18;;;;;;;7.93;4.22;;;;;;;35.44;18.80;101346.16;5028890;28;20048;-79
2023/06/12 11:22:47;;;;;;;5.30;4.75;;;;;;;35.00;19.02;101354.41;5026574;28;20031;-79
2023/06/12 11:25:13;;;;;;;4.78;4.30;;;;;;;35.15;18.77;101350.06;5007528;28;20080;-79
2023/06/12 11:27:39;;;;;;;4.32;3.85;;;;;;;35.33;18.53;101344.97;5027925;28;20033;-79
2023/06/12 11:32:58;;;;;;;5.20;4.65;;;;;;;35.22;18.55;101339.88;5019573;23;20054;-79
2023/06/12 11:36:03;;;;;;;6.20;4.28;;;;;;;36.04;17.94;101336.94;4983595;28;20405;-79
2023/06/12 11:38:41;;;;;;;4.57;4.18;;;;;;;36.15;18.23;101336.44;5005325;28;20038;-79
2023/06/12 11:41:54;;;;;;;4.78;4.38;;;;;;;36.29;18.02;101327.53;5009398;28;20044;-79
2023/06/12 11:44:44;;;;;;;5.47;4.45;;;;;;;35.66;18.88;101335.50;4899764;29;20056;-79
2023/06/12 11:47:13;;;;;;;7.35;4.32;;;;;;;36.59;17.70;101339.09;4892780;29;20146;-78
2023/06/12 11:49:38;;;;;;;7.15;4.40;;;;;;;34.98;18.63;101331.56;4898195;29;20028;-78
2023/06/12 11:52:22;;;;;;;5.95;4.40;;;;;;;35.38;18.54;101325.13;4897514;29;20548;-78
2023/06/12 11:55:36;;;;;;;4.68;4.13;;;;;;;35.03;18.88;101331.31;4893070;29;20185;-79
2023/06/12 11:58:01;;;;;;;7.10;4.68;;;;;;;34.45;19.68;101315.53;4895615;29;20060;-78